createdAt,value
2023-03-15T00:01:34.459Z,96374.28
2023-03-15T00:04:06.154Z,96351.31
2023-03-15T00:06:34.740Z,96373.34
2023-03-15T00:09:03.390Z,96365.69
2023-03-15T00:11:32.463Z,96377.00
2023-03-15T00:14:02.641Z,96372.13
2023-03-15T00:16:33.029Z,96349.78
2023-03-15T00:19:01.788Z,96344.28
2023-03-15T00:21:31.630Z,96380.69
2023-03-15T00:23:59.861Z,96386.19
2023-03-15T00:26:28.251Z,96381.75
2023-03-15T00:28:56.480Z,96351.31
2023-03-15T00:31:26.395Z,96364.19
2023-03-15T00:33:55.276Z,96387.47
2023-03-15T00:36:25.776Z,96369.63
2023-03-15T00:38:57.157Z,96376.69
2023-03-15T00:41:25.919Z,96386.34
2023-03-15T00:43:54.500Z,96393.16
2023-03-15T00:46:22.703Z,96375.50
2023-03-15T00:48:53.898Z,96329.78
2023-03-15T00:51:24.444Z,96404.94
2023-03-15T00:53:55.321Z,96392.78
2023-03-15T00:56:25.376Z,96416.53
2023-03-15T00:58:54.182Z,96408.38
2023-03-15T01:01:24.507Z,96411.16
2023-03-15T01:03:53.274Z,96343.97
2023-03-15T01:06:23.846Z,96414.91
2023-03-15T01:08:52.715Z,96392.75
2023-03-15T01:11:25.856Z,96423.38
2023-03-15T01:13:55.179Z,96431.28
2023-03-15T01:16:23.873Z,96434.16
2023-03-15T01:18:52.826Z,96440.13
2023-03-15T01:21:22.269Z,96412.34
2023-03-15T01:23:50.859Z,96449.00
2023-03-15T01:26:19.431Z,96430.47
2023-03-15T01:28:49.079Z,96447.25
2023-03-15T01:31:20.908Z,96447.31
2023-03-15T01:33:49.334Z,96376.03
2023-03-15T01:36:17.668Z,96409.81
2023-03-15T01:38:46.707Z,96448.94
2023-03-15T01:41:15.655Z,96440.81
2023-03-15T01:43:47.495Z,96425.88
2023-03-15T01:46:34.890Z,96424.19
2023-03-15T01:49:08.706Z,96422.81
2023-03-15T01:51:41.800Z,96423.81
2023-03-15T01:54:14.969Z,96427.91
2023-03-15T01:56:47.743Z,96262.06
2023-03-15T01:59:20.659Z,96433.41
2023-03-15T02:01:54.684Z,96441.03
2023-03-15T02:04:26.148Z,96440.41
2023-03-15T02:06:59.415Z,96434.19
2023-03-15T02:09:31.994Z,96448.88
2023-03-15T02:12:01.086Z,96432.63
2023-03-15T02:14:30.306Z,96439.81
2023-03-15T02:17:00.055Z,96433.16
2023-03-15T02:19:41.737Z,96438.84
2023-03-15T02:22:23.815Z,96437.22
2023-03-15T02:25:00.158Z,96304.78
2023-03-15T02:27:34.570Z,96434.63
2023-03-15T02:30:05.381Z,96421.25
2023-03-15T02:32:33.676Z,96431.25
2023-03-15T02:35:01.904Z,96437.22
2023-03-15T02:37:30.103Z,96436.47
2023-03-15T02:39:58.236Z,96446.94
2023-03-15T02:42:27.000Z,96424.50
2023-03-15T02:44:58.902Z,96454.19
2023-03-15T02:47:31.643Z,96444.84
2023-03-15T02:49:59.909Z,96455.47
2023-03-15T02:52:28.157Z,96422.34
2023-03-15T02:54:56.300Z,96459.41
2023-03-15T02:57:24.502Z,96453.44
2023-03-15T02:59:52.690Z,96471.38
2023-03-15T03:02:23.925Z,96459.16
2023-03-15T03:04:52.770Z,96476.16
2023-03-15T03:07:20.936Z,96475.91
2023-03-15T03:09:49.138Z,96481.16
2023-03-15T03:12:17.300Z,96461.78
2023-03-15T03:14:45.537Z,96484.72
2023-03-15T03:17:13.749Z,96470.03
2023-03-15T03:19:43.458Z,96473.63
2023-03-15T03:22:13.387Z,96486.22
2023-03-15T03:24:46.243Z,96490.38
2023-03-15T03:27:15.276Z,96435.91
2023-03-15T03:29:43.597Z,96475.19
2023-03-15T03:32:12.219Z,96500.81
2023-03-15T03:34:40.341Z,96502.47
2023-03-15T03:37:10.032Z,96509.56
2023-03-15T03:39:38.220Z,96507.38
2023-03-15T03:42:06.895Z,96500.25
2023-03-15T03:44:35.119Z,96525.13
2023-03-15T03:47:03.364Z,96530.06
2023-03-15T03:49:31.574Z,96521.75
2023-03-15T03:52:00.493Z,96529.81
2023-03-15T03:54:32.253Z,96521.66
2023-03-15T03:57:00.438Z,96539.53
2023-03-15T03:59:28.631Z,96536.38
2023-03-15T04:01:56.784Z,96548.44
2023-03-15T04:04:26.483Z,96540.06
2023-03-15T04:06:54.726Z,96491.91
2023-03-15T04:09:25.153Z,96524.13
2023-03-15T04:11:54.751Z,96543.59
2023-03-15T04:14:23.026Z,96402.00
2023-03-15T04:16:51.181Z,96545.91
2023-03-15T04:19:19.417Z,96550.00
2023-03-15T04:21:47.835Z,96554.50
2023-03-15T04:24:16.049Z,96550.13
2023-03-15T04:26:44.215Z,96556.97
2023-03-15T04:29:15.377Z,96561.19
2023-03-15T04:31:43.653Z,96557.56
2023-03-15T04:34:11.883Z,96557.03
2023-03-15T04:36:40.092Z,96563.53
2023-03-15T04:39:08.319Z,96475.09
2023-03-15T04:41:36.963Z,96569.00
2023-03-15T04:44:05.881Z,96564.41
2023-03-15T04:46:35.602Z,96567.88
2023-03-15T04:49:06.149Z,96567.84
2023-03-15T04:51:35.170Z,96560.06
2023-03-15T04:54:04.325Z,96558.56
2023-03-15T04:56:32.584Z,96535.44
2023-03-15T04:59:00.821Z,96528.72
2023-03-15T05:01:32.129Z,96550.19
2023-03-15T05:04:01.647Z,96551.66
2023-03-15T05:06:30.443Z,96569.63
2023-03-15T05:08:58.663Z,96575.56
2023-03-15T05:11:27.061Z,96565.50
2023-03-15T05:13:55.290Z,96589.34
2023-03-15T05:16:23.589Z,96587.59
2023-03-15T05:18:51.756Z,96584.59
2023-03-15T05:21:21.215Z,96401.09
2023-03-15T05:23:49.411Z,96520.28
2023-03-15T05:26:17.546Z,96603.59
2023-03-15T05:28:46.000Z,96605.41
2023-03-15T05:31:14.313Z,96610.72
2023-03-15T05:33:47.185Z,96610.72
2023-03-15T05:36:15.833Z,96614.03
2023-03-15T05:38:45.789Z,96587.31
2023-03-15T05:41:18.433Z,96615.44
2023-03-15T05:43:46.722Z,96625.00
2023-03-15T05:46:15.032Z,96631.78
2023-03-15T05:48:43.473Z,96648.09
2023-03-15T05:51:13.364Z,96649.81
2023-03-15T05:53:41.640Z,96652.38
2023-03-15T05:56:11.570Z,96654.63
2023-03-15T05:58:40.072Z,96662.59
2023-03-15T06:01:08.277Z,96673.06
2023-03-15T06:03:36.642Z,96671.13
2023-03-15T06:06:05.279Z,96678.00
2023-03-15T06:08:33.476Z,96656.56
2023-03-15T06:11:01.743Z,96688.44
2023-03-15T06:13:31.526Z,96521.63
2023-03-15T06:15:59.676Z,96701.59
2023-03-15T06:18:27.831Z,96709.41
2023-03-15T06:23:24.791Z,96710.34
2023-03-15T06:25:53.013Z,96719.97
2023-03-15T06:28:21.266Z,96697.88
2023-03-15T06:30:50.929Z,96687.78
2023-03-15T06:33:19.264Z,96671.09
2023-03-15T06:35:48.109Z,96742.13
2023-03-15T06:38:16.379Z,96738.63
2023-03-15T06:40:45.457Z,96732.97
2023-03-15T06:43:19.572Z,96673.34
2023-03-15T06:45:48.581Z,96757.75
2023-03-15T06:48:18.661Z,96750.75
2023-03-15T06:50:47.864Z,96764.72
2023-03-15T06:53:16.382Z,96768.91
2023-03-15T06:55:44.825Z,96742.44
2023-03-15T06:58:13.237Z,96710.19
2023-03-15T07:00:41.717Z,96682.19
2023-03-15T07:03:09.966Z,96775.97
2023-03-15T07:05:39.600Z,96755.88
2023-03-15T07:08:07.887Z,96787.53
2023-03-15T07:10:36.574Z,96801.41
2023-03-15T07:13:07.044Z,96770.47
2023-03-15T07:15:37.669Z,96803.84
2023-03-15T07:18:05.930Z,96814.09
2023-03-15T07:20:36.226Z,96767.00
2023-03-15T07:23:07.217Z,96811.06
2023-03-15T07:25:48.353Z,96796.66
2023-03-15T07:28:23.031Z,96623.97
2023-03-15T07:30:55.568Z,96831.81
2023-03-15T07:33:24.762Z,96836.22
2023-03-15T07:35:54.687Z,96656.66
2023-03-15T07:38:25.290Z,96844.13
2023-03-15T07:40:53.841Z,96831.84
2023-03-15T07:43:22.539Z,96853.50
2023-03-15T07:45:51.050Z,96823.69
2023-03-15T07:48:19.463Z,96865.50
2023-03-15T07:50:47.819Z,96779.28
2023-03-15T07:53:16.384Z,96856.81
2023-03-15T07:55:48.718Z,96770.09
2023-03-15T07:58:20.122Z,96870.31
2023-03-15T08:00:48.826Z,96871.72
2023-03-15T08:03:17.202Z,96857.09
2023-03-15T08:05:45.345Z,96868.81
2023-03-15T08:08:13.484Z,96879.69
2023-03-15T08:10:41.664Z,96877.84
2023-03-15T08:13:11.188Z,96881.94
2023-03-15T08:15:39.344Z,96880.00
2023-03-15T08:18:07.542Z,96879.78
2023-03-15T08:20:35.828Z,96870.16
2023-03-15T08:23:04.016Z,96884.19
2023-03-15T08:25:32.270Z,96891.09
2023-03-15T08:28:00.411Z,96894.16
2023-03-15T08:30:30.251Z,96889.56
2023-03-15T08:32:58.479Z,96846.25
2023-03-15T08:35:26.774Z,96889.94
2023-03-15T08:37:55.576Z,96905.56
2023-03-15T08:40:26.583Z,96901.28
2023-03-15T08:42:55.504Z,96895.75
2023-03-15T08:45:24.269Z,96890.22
2023-03-15T08:47:56.444Z,96903.34
2023-03-15T08:50:25.215Z,96896.16
2023-03-15T08:52:53.475Z,96887.22
2023-03-15T08:55:21.788Z,96723.66
2023-03-15T08:57:50.036Z,96907.13
2023-03-15T09:00:20.942Z,96911.28
2023-03-15T09:02:50.051Z,96914.47
2023-03-15T09:05:19.985Z,96908.19
2023-03-15T09:07:48.958Z,96803.28
2023-03-15T09:10:18.641Z,96902.34
2023-03-15T09:12:49.571Z,96927.72
2023-03-15T09:15:19.338Z,96925.41
2023-03-15T09:17:47.735Z,96941.34
2023-03-15T09:20:16.931Z,96916.88
2023-03-15T09:22:52.611Z,96959.19
2023-03-15T09:25:21.289Z,96931.28
2023-03-15T09:27:49.895Z,96914.28
2023-03-15T09:30:19.013Z,96960.53
2023-03-15T09:32:47.313Z,96971.25
2023-03-15T09:35:17.787Z,96856.38
2023-03-15T09:37:47.539Z,96977.09
2023-03-15T09:40:21.189Z,96969.16
2023-03-15T09:42:58.536Z,96959.19
2023-03-15T09:45:33.311Z,96977.31
2023-03-15T09:48:07.230Z,96972.25
2023-03-15T09:50:42.685Z,96976.75
2023-03-15T09:53:16.921Z,96977.63
2023-03-15T09:55:48.309Z,96944.72
2023-03-15T09:58:20.918Z,96966.88
2023-03-15T10:00:52.384Z,97002.19
2023-03-15T10:03:28.640Z,96970.47
2023-03-15T10:06:00.220Z,96978.16
2023-03-15T10:08:29.956Z,96996.84
2023-03-15T10:11:15.931Z,97002.72
2023-03-15T10:13:59.782Z,96990.34
2023-03-15T10:16:39.506Z,97016.59
2023-03-15T10:19:17.335Z,97081.97
2023-03-15T10:21:55.758Z,97037.50
2023-03-15T10:24:34.063Z,97045.22
2023-03-15T10:27:15.491Z,97056.78
2023-03-15T10:29:44.477Z,97053.56
2023-03-15T10:32:19.101Z,97058.72
2023-03-15T10:34:51.054Z,97059.63
2023-03-15T10:37:19.491Z,97046.22
2023-03-15T10:39:53.546Z,97072.44
2023-03-15T10:42:30.282Z,97054.22
2023-03-15T10:45:00.415Z,97072.88
2023-03-15T10:47:29.349Z,97072.47
2023-03-15T10:49:59.110Z,97060.25
2023-03-15T10:52:35.817Z,97077.28
2023-03-15T10:55:12.381Z,97023.69
2023-03-15T10:57:43.340Z,96983.91
2023-03-15T11:00:31.296Z,97095.06
2023-03-15T11:03:04.713Z,97081.44
2023-03-15T11:05:38.253Z,97061.34
2023-03-15T11:08:14.374Z,97008.59
2023-03-15T11:10:45.477Z,97079.19
2023-03-15T11:13:20.622Z,97084.97
2023-03-15T11:15:56.182Z,97104.19
2023-03-15T11:18:29.640Z,97084.56
2023-03-15T11:20:59.913Z,97103.41
2023-03-15T11:23:31.060Z,97093.06
2023-03-15T11:26:01.479Z,96937.44
2023-03-15T11:28:32.313Z,97086.13
2023-03-15T11:31:02.013Z,97098.34
2023-03-15T11:33:42.693Z,97084.31
2023-03-15T11:36:17.482Z,97110.81
2023-03-15T11:38:46.721Z,97110.72
2023-03-15T11:41:29.028Z,97060.44
2023-03-15T11:44:05.025Z,97118.81
2023-03-15T11:46:37.525Z,97116.47
2023-03-15T11:49:17.050Z,97109.84
2023-03-15T11:51:45.427Z,97106.50
2023-03-15T11:54:16.140Z,97119.75
2023-03-15T11:57:05.491Z,97126.50
2023-03-15T11:59:35.850Z,97145.66
2023-03-15T12:02:38.556Z,97111.13
2023-03-15T12:05:17.985Z,97134.38
2023-03-15T12:08:01.256Z,97127.22
2023-03-15T12:10:46.621Z,97009.06
2023-03-15T12:13:24.331Z,97091.84
2023-03-15T12:15:53.356Z,97126.28
2023-03-15T12:18:44.321Z,97116.56
2023-03-15T12:21:16.743Z,97136.25
2023-03-15T12:23:50.034Z,97127.22
2023-03-15T12:26:41.773Z,97138.78
2023-03-15T12:29:18.113Z,97125.22
2023-03-15T12:31:57.702Z,97095.91
2023-03-15T12:34:31.849Z,97128.28
2023-03-15T12:37:05.891Z,97130.81
2023-03-15T12:39:52.930Z,97132.19
2023-03-15T12:43:02.081Z,97120.31
2023-03-15T12:45:38.990Z,97137.38
2023-03-15T12:48:31.803Z,97138.78
2023-03-15T12:51:06.676Z,97155.34
2023-03-15T12:53:49.450Z,97095.03
2023-03-15T12:56:29.531Z,97128.53
2023-03-15T12:59:05.053Z,97127.28
2023-03-15T13:01:35.972Z,97155.38
2023-03-15T13:04:05.209Z,97156.88
2023-03-15T13:06:46.782Z,97151.28
2023-03-15T13:09:29.043Z,97161.03
2023-03-15T13:12:02.544Z,97168.53
2023-03-15T13:14:43.170Z,97149.81
2023-03-15T13:17:22.889Z,97143.53
2023-03-15T13:19:57.334Z,97161.53
2023-03-15T13:22:33.459Z,97160.06
2023-03-15T13:25:11.008Z,97160.47
2023-03-15T13:27:51.135Z,97152.56
2023-03-15T13:30:32.265Z,97160.38
2023-03-15T13:33:22.640Z,97147.94
2023-03-15T13:35:57.490Z,97060.88
2023-03-15T13:38:28.777Z,97167.38
2023-03-15T13:40:58.558Z,97172.25
2023-03-15T13:43:28.874Z,97097.47
2023-03-15T13:45:58.844Z,97137.41
2023-03-15T13:48:34.433Z,97165.72
2023-03-15T13:51:07.310Z,97152.59
2023-03-15T13:53:48.907Z,97174.81
2023-03-15T13:56:20.208Z,97155.94
2023-03-15T13:58:50.288Z,97062.31
2023-03-15T14:01:19.585Z,97186.78
2023-03-15T14:03:56.853Z,97188.53
2023-03-15T14:06:27.747Z,97197.28
2023-03-15T14:09:02.224Z,97165.25
2023-03-15T14:11:37.442Z,97184.41
2023-03-15T14:14:23.311Z,97167.25
2023-03-15T14:17:04.330Z,97176.63
2023-03-15T14:19:37.172Z,97156.69
2023-03-15T14:22:14.070Z,97181.81
2023-03-15T14:24:44.509Z,97187.28
2023-03-15T14:27:18.053Z,97127.25
2023-03-15T14:29:48.960Z,97197.47
2023-03-15T14:32:28.390Z,97187.44
2023-03-15T14:35:08.163Z,97196.56
2023-03-15T14:37:39.264Z,97197.91
2023-03-15T14:40:21.172Z,97184.91
2023-03-15T14:42:50.810Z,97216.81
2023-03-15T14:45:22.302Z,97216.50
2023-03-15T14:47:57.177Z,97223.38
2023-03-15T14:50:31.033Z,97233.69
2023-03-15T14:53:00.184Z,97210.28
2023-03-15T14:55:33.635Z,97239.00
2023-03-15T14:58:02.228Z,97229.50
2023-03-15T15:00:31.308Z,97232.44
2023-03-15T15:03:00.181Z,97227.50
2023-03-15T15:05:31.646Z,97196.66
2023-03-15T15:08:05.020Z,97232.94
2023-03-15T15:10:35.008Z,97227.91
2023-03-15T15:13:06.795Z,97222.91
2023-03-15T15:15:53.943Z,97213.31
2023-03-15T15:18:23.962Z,97217.66
2023-03-15T15:20:56.247Z,97213.69
2023-03-15T15:23:27.570Z,97198.50
2023-03-15T15:25:59.033Z,97228.53
2023-03-15T15:28:37.201Z,97226.50
2023-03-15T15:31:07.544Z,97201.06
2023-03-15T15:33:35.870Z,97179.31
2023-03-15T15:36:11.538Z,97242.63
2023-03-15T15:38:40.388Z,97253.38
2023-03-15T15:41:14.915Z,97254.00
2023-03-15T15:43:43.972Z,97251.09
2023-03-15T15:46:13.801Z,97240.44
2023-03-15T15:48:42.488Z,97280.16
2023-03-15T15:51:27.183Z,97278.81
2023-03-15T15:53:59.196Z,97276.91
2023-03-15T15:56:33.353Z,97294.63
2023-03-15T15:59:03.182Z,97292.00
2023-03-15T16:01:31.889Z,97394.19
2023-03-15T16:04:01.732Z,97319.28
2023-03-15T16:06:32.661Z,97296.50
2023-03-15T16:09:01.074Z,97295.63
2023-03-15T16:11:30.152Z,97325.88
2023-03-15T16:13:58.389Z,97296.50
2023-03-15T16:16:27.650Z,97328.66
2023-03-15T16:18:56.109Z,97340.72
2023-03-15T16:21:34.017Z,97336.78
2023-03-15T16:24:07.696Z,97349.19
2023-03-15T16:26:40.694Z,97351.19
2023-03-15T16:29:17.684Z,97351.31
2023-03-15T16:31:46.178Z,97356.81
2023-03-15T16:34:16.263Z,97353.66
2023-03-15T16:36:49.896Z,96924.59
2023-03-15T16:39:18.767Z,97349.53
2023-03-15T16:41:47.023Z,97330.72
2023-03-15T16:44:16.917Z,97368.41
2023-03-15T16:46:45.342Z,97379.00
2023-03-15T16:49:15.539Z,97388.56
2023-03-15T16:51:49.139Z,97388.53
2023-03-15T16:54:30.624Z,97394.81
2023-03-15T16:57:12.751Z,97405.34
2023-03-15T16:59:41.076Z,97403.66
2023-03-15T17:02:18.736Z,97387.28
2023-03-15T17:04:47.206Z,97406.25
2023-03-15T17:07:17.779Z,97402.88
2023-03-15T17:09:48.208Z,97345.56
2023-03-15T17:12:22.665Z,97420.50
2023-03-15T17:14:51.998Z,97403.28
2023-03-15T17:17:20.234Z,97424.84
2023-03-15T17:19:49.462Z,97293.47
2023-03-15T17:22:19.725Z,97287.47
2023-03-15T17:24:48.644Z,97424.34
2023-03-15T17:27:23.873Z,97437.16
2023-03-15T17:29:52.680Z,97425.22
2023-03-15T17:32:21.029Z,97430.59
2023-03-15T17:34:49.337Z,97448.81
2023-03-15T17:37:20.058Z,97406.84
2023-03-15T17:39:48.860Z,97456.72
2023-03-15T17:42:17.298Z,97463.81
2023-03-15T17:44:45.496Z,97464.72
2023-03-15T17:47:14.216Z,97443.91
2023-03-15T17:49:42.486Z,97475.91
2023-03-15T17:52:17.416Z,97458.88
2023-03-15T17:54:47.780Z,97483.00
2023-03-15T17:57:16.062Z,97474.38
2023-03-15T17:59:44.461Z,97480.53
2023-03-15T18:02:16.456Z,97464.41
2023-03-15T18:04:44.765Z,97490.28
2023-03-15T18:07:13.247Z,97493.84
2023-03-15T18:09:41.561Z,97472.41
2023-03-15T18:12:15.244Z,97495.66
2023-03-15T18:14:43.662Z,97504.41
2023-03-15T18:17:12.446Z,97495.81
2023-03-15T18:19:40.736Z,97440.84
2023-03-15T18:22:18.664Z,97503.09
2023-03-15T18:24:47.292Z,97503.19
2023-03-15T18:27:16.932Z,97461.06
2023-03-15T18:29:45.035Z,97506.66
2023-03-15T18:32:13.393Z,97511.13
2023-03-15T18:34:41.618Z,97510.28
2023-03-15T18:37:18.015Z,97444.91
2023-03-15T18:39:46.382Z,97521.63
2023-03-15T18:42:14.672Z,97519.09
2023-03-15T18:44:45.132Z,97518.31
2023-03-15T18:47:13.958Z,97525.19
2023-03-15T18:49:42.130Z,97498.41
2023-03-15T18:52:13.459Z,97523.44
2023-03-15T18:54:41.618Z,97528.66
2023-03-15T18:57:10.265Z,97505.50
2023-03-15T18:59:38.596Z,97509.75
2023-03-15T19:02:09.443Z,97513.25
2023-03-15T19:04:37.657Z,97529.59
2023-03-15T19:07:06.091Z,97531.38
2023-03-15T19:09:34.371Z,97532.19
2023-03-15T19:12:03.202Z,97522.81
2023-03-15T19:14:31.481Z,97542.66
2023-03-15T19:17:00.289Z,97467.69
2023-03-15T19:19:30.376Z,97543.53
2023-03-15T19:21:59.032Z,97531.53
2023-03-15T19:24:27.310Z,97549.69
2023-03-15T19:26:55.478Z,97553.06
2023-03-15T19:29:24.101Z,97559.09
2023-03-15T19:31:52.374Z,97562.56
2023-03-15T19:34:20.976Z,97539.38
2023-03-15T19:36:50.676Z,97534.16
2023-03-15T19:39:19.214Z,97535.06
2023-03-15T19:41:47.518Z,97532.50
2023-03-15T19:44:16.503Z,97440.34
2023-03-15T19:46:45.461Z,97499.81
2023-03-15T19:49:13.900Z,97550.66
2023-03-15T19:51:42.028Z,97556.72
2023-03-15T19:54:11.747Z,97555.03
2023-03-15T19:56:40.099Z,97566.25
2023-03-15T19:59:08.397Z,97518.78
2023-03-15T20:01:36.778Z,97544.69
2023-03-15T20:04:05.165Z,97488.66
2023-03-15T20:06:33.415Z,97502.44
2023-03-15T20:09:01.941Z,97550.75
2023-03-15T20:11:31.646Z,97568.91
2023-03-15T20:13:59.927Z,97574.03
2023-03-15T20:16:28.194Z,97510.25
2023-03-15T20:18:56.943Z,97584.44
2023-03-15T20:21:25.283Z,97581.88
2023-03-15T20:23:54.205Z,97585.38
2023-03-15T20:26:24.003Z,97577.59
2023-03-15T20:28:53.815Z,97590.53
2023-03-15T20:31:22.080Z,97572.44
2023-03-15T20:33:51.690Z,97594.00
2023-03-15T20:36:20.415Z,97441.28
2023-03-15T20:38:48.641Z,97588.75
2023-03-15T20:41:18.412Z,97580.94
2023-03-15T20:43:48.074Z,97597.28
2023-03-15T20:46:19.394Z,97603.31
2023-03-15T20:48:47.742Z,97605.94
2023-03-15T20:51:15.915Z,97599.03
2023-03-15T20:53:44.302Z,97612.00
2023-03-15T20:56:12.552Z,97615.47
2023-03-15T20:58:40.685Z,97612.88
2023-03-15T21:01:10.677Z,97573.19
2023-03-15T21:03:40.597Z,97597.34
2023-03-15T21:06:09.439Z,97618.97
2023-03-15T21:08:37.812Z,97511.13
2023-03-15T21:11:07.434Z,97546.53
2023-03-15T21:13:36.679Z,97630.22
2023-03-15T21:16:05.433Z,97630.25
2023-03-15T21:18:36.097Z,97640.63
2023-03-15T21:21:08.382Z,97639.75
2023-03-15T21:23:37.118Z,97644.06
2023-03-15T21:26:08.649Z,97650.97
2023-03-15T21:28:36.928Z,97534.47
2023-03-15T21:31:05.681Z,97651.84
2023-03-15T21:33:35.652Z,97633.72
2023-03-15T21:36:06.141Z,97560.34
2023-03-15T21:38:36.361Z,97650.97
2023-03-15T21:41:09.326Z,97647.47
2023-03-15T21:43:38.200Z,97654.38
2023-03-15T21:46:08.957Z,97652.69
2023-03-15T21:48:38.194Z,97594.84
2023-03-15T21:51:08.333Z,97595.72
2023-03-15T21:53:38.532Z,97568.97
2023-03-15T21:56:07.313Z,97638.00
2023-03-15T21:58:35.603Z,97632.84
2023-03-15T22:01:06.387Z,97643.22
2023-03-15T22:03:36.308Z,97601.78
2023-03-15T22:06:05.047Z,97631.13
2023-03-15T22:08:34.750Z,97645.81
2023-03-15T22:11:04.790Z,97625.09
2023-03-15T22:13:33.041Z,97644.09
2023-03-15T22:16:01.541Z,97640.63
2023-03-15T22:18:30.194Z,97665.69
2023-03-15T22:20:58.449Z,97613.88
2023-03-15T22:23:26.720Z,97651.00
2023-03-15T22:25:57.379Z,97630.25
2023-03-15T22:28:26.359Z,97659.63
2023-03-15T22:30:54.977Z,97644.06
2023-03-15T22:33:23.783Z,97657.91
2023-03-15T22:35:56.977Z,97670.84
2023-03-15T22:38:26.572Z,97605.22
2023-03-15T22:41:04.136Z,97676.91
2023-03-15T22:43:32.377Z,97644.09
2023-03-15T22:46:00.996Z,97683.81
2023-03-15T22:48:29.529Z,97682.94
2023-03-15T22:51:00.068Z,97699.38
2023-03-15T22:53:28.619Z,97687.25
2023-03-15T22:55:56.770Z,97686.41
2023-03-15T22:58:27.998Z,97553.44
2023-03-15T23:00:56.379Z,97682.97
2023-03-15T23:03:24.817Z,97704.56
2023-03-15T23:05:53.444Z,97682.94
2023-03-15T23:08:22.888Z,97700.19
2023-03-15T23:10:51.688Z,97701.06
2023-03-15T23:13:20.043Z,97703.63
2023-03-15T23:15:49.845Z,97710.56
2023-03-15T23:18:18.107Z,97663.94
2023-03-15T23:20:46.045Z,97708.84
2023-03-15T23:23:14.234Z,97708.84
2023-03-15T23:25:43.243Z,97715.75
2023-03-15T23:28:11.482Z,97720.09
2023-03-15T23:30:41.473Z,97710.56
2023-03-15T23:33:11.244Z,97720.06
2023-03-15T23:35:39.609Z,97714.91
2023-03-15T23:38:08.642Z,97729.59
2023-03-15T23:40:36.954Z,97672.59
2023-03-15T23:43:05.996Z,97730.47
2023-03-15T23:45:34.235Z,97733.91
2023-03-15T23:48:03.005Z,97723.53
2023-03-15T23:50:32.501Z,97668.25
2023-03-15T23:53:00.776Z,97725.28
2023-03-15T23:55:29.486Z,97714.06
2023-03-15T23:57:57.665Z,97716.63
